sensor_id;sensor_type;location;lat;lon;timestamp;temperature;humidity
36374;DHT22;22399;51.346;12.372;2024-03-06T00:00:54;4.40;99.90
36374;DHT22;22399;51.346;12.372;2024-03-06T00:03:23;4.50;99.90
36374;DHT22;22399;51.346;12.372;2024-03-06T00:05:51;4.50;99.90
36374;DHT22;22399;51.346;12.372;2024-03-06T00:08:20;4.60;99.90
36374;DHT22;22399;51.346;12.372;2024-03-06T00:10:49;4.50;99.90
36374;DHT22;22399;51.346;12.372;2024-03-06T00:13:18;4.50;99.90
36374;DHT22;22399;51.346;12.372;2024-03-06T00:15:47;4.50;99.90
36374;DHT22;22399;51.346;12.372;2024-03-06T00:18:16;4.50;99.90
36374;DHT22;22399;51.346;12.372;2024-03-06T00:20:44;4.50;99.90
36374;DHT22;22399;51.346;12.372;2024-03-06T00:23:12;4.50;99.90
36374;DHT22;22399;51.346;12.372;2024-03-06T00:25:40;4.50;99.90
36374;DHT22;22399;51.346;12.372;2024-03-06T00:28:10;4.50;99.90
36374;DHT22;22399;51.346;12.372;2024-03-06T00:30:39;4.50;99.90
36374;DHT22;22399;51.346;12.372;2024-03-06T00:33:07;4.60;99.90
36374;DHT22;22399;51.346;12.372;2024-03-06T00:35:35;4.60;99.90
36374;DHT22;22399;51.346;12.372;2024-03-06T00:38:04;4.50;99.90
36374;DHT22;22399;51.346;12.372;2024-03-06T00:40:33;4.50;99.90
36374;DHT22;22399;51.346;12.372;2024-03-06T00:43:02;4.40;99.90
36374;DHT22;22399;51.346;12.372;2024-03-06T00:45:31;4.30;99.90
36374;DHT22;22399;51.346;12.372;2024-03-06T00:48:00;4.20;99.90
36374;DHT22;22399;51.346;12.372;2024-03-06T00:50:28;4.10;99.90
36374;DHT22;22399;51.346;12.372;2024-03-06T00:52:56;4.10;99.90
36374;DHT22;22399;51.346;12.372;2024-03-06T00:55:25;4.00;99.90
36374;DHT22;22399;51.346;12.372;2024-03-06T00:57:53;3.90;99.90
36374;DHT22;22399;51.346;12.372;2024-03-06T01:00:21;3.80;99.90
36374;DHT22;22399;51.346;12.372;2024-03-06T01:02:51;3.80;99.90
36374;DHT22;22399;51.346;12.372;2024-03-06T01:05:19;3.70;99.90
36374;DHT22;22399;51.346;12.372;2024-03-06T01:07:48;3.70;99.90
36374;DHT22;22399;51.346;12.372;2024-03-06T01:10:16;3.60;99.90
36374;DHT22;22399;51.346;12.372;2024-03-06T01:12:45;3.60;99.90
36374;DHT22;22399;51.346;12.372;2024-03-06T01:15:13;3.50;99.90
36374;DHT22;22399;51.346;12.372;2024-03-06T01:17:42;3.40;99.90
36374;DHT22;22399;51.346;12.372;2024-03-06T01:20:12;3.40;99.90
36374;DHT22;22399;51.346;12.372;2024-03-06T01:22:41;3.40;99.90
36374;DHT22;22399;51.346;12.372;2024-03-06T01:25:09;3.30;99.90
36374;DHT22;22399;51.346;12.372;2024-03-06T01:27:38;3.30;99.90
36374;DHT22;22399;51.346;12.372;2024-03-06T01:30:07;3.20;99.90
36374;DHT22;22399;51.346;12.372;2024-03-06T01:32:36;3.20;99.90
36374;DHT22;22399;51.346;12.372;2024-03-06T01:35:05;3.20;99.90
36374;DHT22;22399;51.346;12.372;2024-03-06T01:37:36;3.20;99.90
36374;DHT22;22399;51.346;12.372;2024-03-06T01:40:06;3.10;99.90
36374;DHT22;22399;51.346;12.372;2024-03-06T01:42:35;3.10;99.90
36374;DHT22;22399;51.346;12.372;2024-03-06T01:45:05;3.10;99.90
36374;DHT22;22399;51.346;12.372;2024-03-06T01:47:34;3.10;99.90
36374;DHT22;22399;51.346;12.372;2024-03-06T01:50:04;3.10;99.90
36374;DHT22;22399;51.346;12.372;2024-03-06T01:52:39;3.00;99.90
36374;DHT22;22399;51.346;12.372;2024-03-06T01:55:09;3.00;99.90
36374;DHT22;22399;51.346;12.372;2024-03-06T01:57:38;3.00;99.90
36374;DHT22;22399;51.346;12.372;2024-03-06T02:00:09;3.00;99.90
36374;DHT22;22399;51.346;12.372;2024-03-06T02:02:42;2.90;99.90
36374;DHT22;22399;51.346;12.372;2024-03-06T02:05:10;2.90;99.90
36374;DHT22;22399;51.346;12.372;2024-03-06T02:07:42;2.80;99.90
36374;DHT22;22399;51.346;12.372;2024-03-06T02:10:11;2.80;99.90
36374;DHT22;22399;51.346;12.372;2024-03-06T02:12:39;2.80;99.90
36374;DHT22;22399;51.346;12.372;2024-03-06T02:15:08;2.70;99.90
36374;DHT22;22399;51.346;12.372;2024-03-06T02:17:41;2.70;99.90
36374;DHT22;22399;51.346;12.372;2024-03-06T02:20:10;2.70;99.90
36374;DHT22;22399;51.346;12.372;2024-03-06T02:22:41;2.70;99.90
36374;DHT22;22399;51.346;12.372;2024-03-06T02:25:09;2.70;99.90
36374;DHT22;22399;51.346;12.372;2024-03-06T02:27:38;2.70;99.90
36374;DHT22;22399;51.346;12.372;2024-03-06T02:30:08;2.70;99.90
36374;DHT22;22399;51.346;12.372;2024-03-06T02:32:36;2.60;99.90
36374;DHT22;22399;51.346;12.372;2024-03-06T02:35:05;2.60;99.90
36374;DHT22;22399;51.346;12.372;2024-03-06T02:37:35;2.60;99.90
36374;DHT22;22399;51.346;12.372;2024-03-06T02:40:07;2.50;99.90
36374;DHT22;22399;51.346;12.372;2024-03-06T02:42:36;2.50;99.90
36374;DHT22;22399;51.346;12.372;2024-03-06T02:45:07;2.50;99.90
36374;DHT22;22399;51.346;12.372;2024-03-06T02:47:36;2.50;99.90
36374;DHT22;22399;51.346;12.372;2024-03-06T02:50:05;2.40;99.90
36374;DHT22;22399;51.346;12.372;2024-03-06T02:52:34;2.40;99.90
36374;DHT22;22399;51.346;12.372;2024-03-06T02:55:05;2.40;99.90
36374;DHT22;22399;51.346;12.372;2024-03-06T02:57:34;2.40;99.90
36374;DHT22;22399;51.346;12.372;2024-03-06T03:00:04;2.30;99.90
36374;DHT22;22399;51.346;12.372;2024-03-06T03:02:36;2.30;99.90
36374;DHT22;22399;51.346;12.372;2024-03-06T03:05:05;2.30;99.90
36374;DHT22;22399;51.346;12.372;2024-03-06T03:07:34;2.30;99.90
36374;DHT22;22399;51.346;12.372;2024-03-06T03:10:03;2.30;99.90
36374;DHT22;22399;51.346;12.372;2024-03-06T03:12:38;2.20;99.90
36374;DHT22;22399;51.346;12.372;2024-03-06T03:15:07;2.20;99.90
36374;DHT22;22399;51.346;12.372;2024-03-06T03:17:36;2.20;99.90
36374;DHT22;22399;51.346;12.372;2024-03-06T03:20:05;2.20;99.90
36374;DHT22;22399;51.346;12.372;2024-03-06T03:22:38;2.20;99.90
36374;DHT22;22399;51.346;12.372;2024-03-06T03:25:07;2.20;99.90
36374;DHT22;22399;51.346;12.372;2024-03-06T03:27:38;2.20;99.90
36374;DHT22;22399;51.346;12.372;2024-03-06T03:30:09;2.10;99.90
36374;DHT22;22399;51.346;12.372;2024-03-06T03:32:37;2.10;99.90
36374;DHT22;22399;51.346;12.372;2024-03-06T03:35:07;2.00;99.90
36374;DHT22;22399;51.346;12.372;2024-03-06T03:37:36;2.10;99.90
36374;DHT22;22399;51.346;12.372;2024-03-06T03:40:05;2.00;99.90
36374;DHT22;22399;51.346;12.372;2024-03-06T03:42:35;2.00;99.90
36374;DHT22;22399;51.346;12.372;2024-03-06T03:45:05;2.00;99.90
36374;DHT22;22399;51.346;12.372;2024-03-06T03:47:34;2.00;99.90
36374;DHT22;22399;51.346;12.372;2024-03-06T03:50:03;2.00;99.90
36374;DHT22;22399;51.346;12.372;2024-03-06T03:52:37;2.00;99.90
36374;DHT22;22399;51.346;12.372;2024-03-06T03:55:09;2.00;99.90
36374;DHT22;22399;51.346;12.372;2024-03-06T03:57:38;1.90;99.90
36374;DHT22;22399;51.346;12.372;2024-03-06T04:00:09;1.90;99.90
36374;DHT22;22399;51.346;12.372;2024-03-06T04:02:39;1.90;99.90
36374;DHT22;22399;51.346;12.372;2024-03-06T04:05:07;1.90;99.90
36374;DHT22;22399;51.346;12.372;2024-03-06T04:07:38;1.90;99.90
36374;DHT22;22399;51.346;12.372;2024-03-06T04:10:07;1.90;99.90
36374;DHT22;22399;51.346;12.372;2024-03-06T04:12:39;1.80;99.90
36374;DHT22;22399;51.346;12.372;2024-03-06T04:15:09;1.80;99.90
36374;DHT22;22399;51.346;12.372;2024-03-06T04:17:38;1.80;99.90
36374;DHT22;22399;51.346;12.372;2024-03-06T04:20:09;1.80;99.90
36374;DHT22;22399;51.346;12.372;2024-03-06T04:22:40;1.80;99.90
36374;DHT22;22399;51.346;12.372;2024-03-06T04:25:09;1.70;99.90
36374;DHT22;22399;51.346;12.372;2024-03-06T04:27:37;1.70;99.90
36374;DHT22;22399;51.346;12.372;2024-03-06T04:30:09;1.70;99.90
36374;DHT22;22399;51.346;12.372;2024-03-06T04:32:37;1.70;99.90
36374;DHT22;22399;51.346;12.372;2024-03-06T04:35:07;1.70;99.90
36374;DHT22;22399;51.346;12.372;2024-03-06T04:37:36;1.70;99.90
36374;DHT22;22399;51.346;12.372;2024-03-06T04:40:05;1.70;99.90
36374;DHT22;22399;51.346;12.372;2024-03-06T04:42:35;1.60;99.90
36374;DHT22;22399;51.346;12.372;2024-03-06T04:45:08;1.60;99.90
36374;DHT22;22399;51.346;12.372;2024-03-06T04:47:38;1.60;99.90
36374;DHT22;22399;51.346;12.372;2024-03-06T04:50:08;1.60;99.90
36374;DHT22;22399;51.346;12.372;2024-03-06T04:52:38;1.50;99.90
36374;DHT22;22399;51.346;12.372;2024-03-06T04:55:08;1.50;99.90
36374;DHT22;22399;51.346;12.372;2024-03-06T04:57:38;1.50;99.90
36374;DHT22;22399;51.346;12.372;2024-03-06T05:00:09;1.50;99.90
36374;DHT22;22399;51.346;12.372;2024-03-06T05:02:39;1.40;99.90
36374;DHT22;22399;51.346;12.372;2024-03-06T05:05:26;1.40;99.90
36374;DHT22;22399;51.346;12.372;2024-03-06T05:08:12;1.40;99.90
36374;DHT22;22399;51.346;12.372;2024-03-06T05:11:00;1.40;99.90
36374;DHT22;22399;51.346;12.372;2024-03-06T05:13:47;1.40;99.90
36374;DHT22;22399;51.346;12.372;2024-03-06T05:16:33;1.30;99.90
36374;DHT22;22399;51.346;12.372;2024-03-06T05:19:20;1.30;99.90
36374;DHT22;22399;51.346;12.372;2024-03-06T05:22:06;1.30;99.90
36374;DHT22;22399;51.346;12.372;2024-03-06T05:24:52;1.20;99.90
36374;DHT22;22399;51.346;12.372;2024-03-06T05:27:39;1.20;99.90
36374;DHT22;22399;51.346;12.372;2024-03-06T05:30:26;1.20;99.90
36374;DHT22;22399;51.346;12.372;2024-03-06T05:33:13;1.20;99.90
36374;DHT22;22399;51.346;12.372;2024-03-06T05:36:00;1.20;99.90
36374;DHT22;22399;51.346;12.372;2024-03-06T05:38:46;1.10;99.90
36374;DHT22;22399;51.346;12.372;2024-03-06T05:41:33;1.10;99.90
36374;DHT22;22399;51.346;12.372;2024-03-06T05:44:19;1.10;99.90
36374;DHT22;22399;51.346;12.372;2024-03-06T05:47:05;1.10;99.90
36374;DHT22;22399;51.346;12.372;2024-03-06T05:49:51;1.00;99.90
36374;DHT22;22399;51.346;12.372;2024-03-06T05:52:38;1.10;99.90
36374;DHT22;22399;51.346;12.372;2024-03-06T05:55:24;1.10;99.90
36374;DHT22;22399;51.346;12.372;2024-03-06T05:58:10;1.10;99.90
36374;DHT22;22399;51.346;12.372;2024-03-06T06:00:43;1.10;99.90
36374;DHT22;22399;51.346;12.372;2024-03-06T06:03:12;1.10;99.90
36374;DHT22;22399;51.346;12.372;2024-03-06T06:05:41;1.10;99.90
36374;DHT22;22399;51.346;12.372;2024-03-06T06:08:10;1.10;99.90
36374;DHT22;22399;51.346;12.372;2024-03-06T06:10:39;1.10;99.90
36374;DHT22;22399;51.346;12.372;2024-03-06T06:13:07;1.10;99.90
36374;DHT22;22399;51.346;12.372;2024-03-06T06:15:36;1.10;99.90
36374;DHT22;22399;51.346;12.372;2024-03-06T06:18:05;1.20;99.90
36374;DHT22;22399;51.346;12.372;2024-03-06T06:20:34;1.20;99.90
36374;DHT22;22399;51.346;12.372;2024-03-06T06:23:02;1.20;99.90
36374;DHT22;22399;51.346;12.372;2024-03-06T06:25:32;1.20;99.90
36374;DHT22;22399;51.346;12.372;2024-03-06T06:28:01;1.30;99.90
36374;DHT22;22399;51.346;12.372;2024-03-06T06:30:29;1.30;99.90
36374;DHT22;22399;51.346;12.372;2024-03-06T06:32:58;1.30;99.90
36374;DHT22;22399;51.346;12.372;2024-03-06T06:35:26;1.40;99.90
36374;DHT22;22399;51.346;12.372;2024-03-06T06:37:55;1.50;99.90
36374;DHT22;22399;51.346;12.372;2024-03-06T06:40:23;1.60;99.90
36374;DHT22;22399;51.346;12.372;2024-03-06T06:42:54;1.60;99.90
36374;DHT22;22399;51.346;12.372;2024-03-06T06:45:22;1.80;99.90
36374;DHT22;22399;51.346;12.372;2024-03-06T06:47:51;1.80;99.90
36374;DHT22;22399;51.346;12.372;2024-03-06T06:50:20;1.90;99.90
36374;DHT22;22399;51.346;12.372;2024-03-06T06:52:53;2.00;99.90
36374;DHT22;22399;51.346;12.372;2024-03-06T06:55:21;2.10;99.90
36374;DHT22;22399;51.346;12.372;2024-03-06T06:57:53;2.10;99.90
36374;DHT22;22399;51.346;12.372;2024-03-06T07:00:23;2.30;99.90
36374;DHT22;22399;51.346;12.372;2024-03-06T07:02:52;2.40;99.90
36374;DHT22;22399;51.346;12.372;2024-03-06T07:05:20;2.40;99.90
36374;DHT22;22399;51.346;12.372;2024-03-06T07:07:48;2.60;99.90
36374;DHT22;22399;51.346;12.372;2024-03-06T07:10:21;3.10;99.90
36374;DHT22;22399;51.346;12.372;2024-03-06T07:12:49;3.50;99.90
36374;DHT22;22399;51.346;12.372;2024-03-06T07:15:19;4.00;99.90
36374;DHT22;22399;51.346;12.372;2024-03-06T07:17:48;4.30;99.90
36374;DHT22;22399;51.346;12.372;2024-03-06T07:20:17;4.40;99.90
36374;DHT22;22399;51.346;12.372;2024-03-06T07:22:45;4.60;99.90
36374;DHT22;22399;51.346;12.372;2024-03-06T07:25:14;4.70;99.90
36374;DHT22;22399;51.346;12.372;2024-03-06T07:27:42;4.90;99.90
36374;DHT22;22399;51.346;12.372;2024-03-06T07:30:12;4.80;99.90
36374;DHT22;22399;51.346;12.372;2024-03-06T07:32:42;4.70;99.90
36374;DHT22;22399;51.346;12.372;2024-03-06T07:35:11;4.90;99.90
36374;DHT22;22399;51.346;12.372;2024-03-06T07:37:40;5.10;99.90
36374;DHT22;22399;51.346;12.372;2024-03-06T07:40:11;5.40;99.90
36374;DHT22;22399;51.346;12.372;2024-03-06T07:42:40;5.70;99.90
36374;DHT22;22399;51.346;12.372;2024-03-06T07:45:09;6.00;99.90
36374;DHT22;22399;51.346;12.372;2024-03-06T07:47:38;6.20;99.90
36374;DHT22;22399;51.346;12.372;2024-03-06T07:50:10;6.40;99.90
36374;DHT22;22399;51.346;12.372;2024-03-06T07:52:40;6.60;99.90
36374;DHT22;22399;51.346;12.372;2024-03-06T07:55:08;6.90;99.90
36374;DHT22;22399;51.346;12.372;2024-03-06T07:57:36;7.20;99.90
36374;DHT22;22399;51.346;12.372;2024-03-06T08:00:06;7.40;99.90
36374;DHT22;22399;51.346;12.372;2024-03-06T08:02:38;7.30;99.90
36374;DHT22;22399;51.346;12.372;2024-03-06T08:05:11;7.50;99.90
36374;DHT22;22399;51.346;12.372;2024-03-06T08:07:41;8.00;99.90
36374;DHT22;22399;51.346;12.372;2024-03-06T08:10:10;8.10;99.90
36374;DHT22;22399;51.346;12.372;2024-03-06T08:12:41;8.20;99.90
36374;DHT22;22399;51.346;12.372;2024-03-06T08:15:12;8.70;99.90
36374;DHT22;22399;51.346;12.372;2024-03-06T08:17:42;8.80;99.90
36374;DHT22;22399;51.346;12.372;2024-03-06T08:20:13;9.00;99.90
36374;DHT22;22399;51.346;12.372;2024-03-06T08:22:42;9.50;99.90
36374;DHT22;22399;51.346;12.372;2024-03-06T08:25:11;9.70;99.90
36374;DHT22;22399;51.346;12.372;2024-03-06T08:27:41;9.50;99.90
36374;DHT22;22399;51.346;12.372;2024-03-06T08:30:10;9.60;99.90
36374;DHT22;22399;51.346;12.372;2024-03-06T08:32:38;9.60;99.90
36374;DHT22;22399;51.346;12.372;2024-03-06T08:35:09;9.50;99.90
36374;DHT22;22399;51.346;12.372;2024-03-06T08:37:41;9.50;99.90
36374;DHT22;22399;51.346;12.372;2024-03-06T08:40:10;9.60;99.90
36374;DHT22;22399;51.346;12.372;2024-03-06T08:42:42;9.70;99.90
36374;DHT22;22399;51.346;12.372;2024-03-06T08:45:11;10.00;99.90
36374;DHT22;22399;51.346;12.372;2024-03-06T08:47:39;10.00;99.90
36374;DHT22;22399;51.346;12.372;2024-03-06T08:50:09;10.20;99.90
36374;DHT22;22399;51.346;12.372;2024-03-06T08:52:39;10.40;99.90
36374;DHT22;22399;51.346;12.372;2024-03-06T08:55:09;10.60;99.90
36374;DHT22;22399;51.346;12.372;2024-03-06T08:57:38;10.10;99.90
36374;DHT22;22399;51.346;12.372;2024-03-06T09:00:08;10.00;99.90
36374;DHT22;22399;51.346;12.372;2024-03-06T09:02:37;9.90;99.90
36374;DHT22;22399;51.346;12.372;2024-03-06T09:05:09;10.00;99.90
36374;DHT22;22399;51.346;12.372;2024-03-06T09:07:42;9.80;99.90
36374;DHT22;22399;51.346;12.372;2024-03-06T09:10:11;9.50;99.90
36374;DHT22;22399;51.346;12.372;2024-03-06T09:12:40;9.30;99.90
36374;DHT22;22399;51.346;12.372;2024-03-06T09:15:09;8.90;99.90
36374;DHT22;22399;51.346;12.372;2024-03-06T09:17:38;8.90;99.90
36374;DHT22;22399;51.346;12.372;2024-03-06T09:20:08;9.10;99.90
36374;DHT22;22399;51.346;12.372;2024-03-06T09:22:40;9.30;99.90
36374;DHT22;22399;51.346;12.372;2024-03-06T09:25:11;9.30;99.90
36374;DHT22;22399;51.346;12.372;2024-03-06T09:27:42;9.40;99.90
36374;DHT22;22399;51.346;12.372;2024-03-06T09:30:12;9.80;99.90
36374;DHT22;22399;51.346;12.372;2024-03-06T09:32:41;10.50;99.90
36374;DHT22;22399;51.346;12.372;2024-03-06T09:35:11;11.00;99.90
36374;DHT22;22399;51.346;12.372;2024-03-06T09:37:41;11.00;99.90
36374;DHT22;22399;51.346;12.372;2024-03-06T09:40:19;11.00;99.90
36374;DHT22;22399;51.346;12.372;2024-03-06T09:42:49;11.30;99.90
36374;DHT22;22399;51.346;12.372;2024-03-06T09:45:17;11.50;99.90
36374;DHT22;22399;51.346;12.372;2024-03-06T09:47:49;11.50;99.90
36374;DHT22;22399;51.346;12.372;2024-03-06T09:50:23;11.20;99.90
36374;DHT22;22399;51.346;12.372;2024-03-06T09:52:54;11.20;99.90
36374;DHT22;22399;51.346;12.372;2024-03-06T09:55:25;11.10;99.90
36374;DHT22;22399;51.346;12.372;2024-03-06T09:57:54;10.90;99.90
36374;DHT22;22399;51.346;12.372;2024-03-06T10:00:22;10.80;99.90
36374;DHT22;22399;51.346;12.372;2024-03-06T10:02:57;10.80;99.90
36374;DHT22;22399;51.346;12.372;2024-03-06T10:05:26;11.10;99.90
36374;DHT22;22399;51.346;12.372;2024-03-06T10:07:55;11.20;99.90
36374;DHT22;22399;51.346;12.372;2024-03-06T10:10:27;11.50;99.90
36374;DHT22;22399;51.346;12.372;2024-03-06T10:12:56;11.70;99.90
36374;DHT22;22399;51.346;12.372;2024-03-06T10:15:27;11.70;99.90
36374;DHT22;22399;51.346;12.372;2024-03-06T10:18:11;11.80;99.90
36374;DHT22;22399;51.346;12.372;2024-03-06T10:20:41;11.80;99.90
36374;DHT22;22399;51.346;12.372;2024-03-06T10:23:12;12.20;99.90
36374;DHT22;22399;51.346;12.372;2024-03-06T10:25:43;12.30;99.90
36374;DHT22;22399;51.346;12.372;2024-03-06T10:28:12;12.20;99.90
36374;DHT22;22399;51.346;12.372;2024-03-06T10:30:42;12.30;99.90
36374;DHT22;22399;51.346;12.372;2024-03-06T10:33:11;12.10;99.90
36374;DHT22;22399;51.346;12.372;2024-03-06T10:35:41;12.00;99.90
36374;DHT22;22399;51.346;12.372;2024-03-06T10:38:11;12.20;99.90
36374;DHT22;22399;51.346;12.372;2024-03-06T10:40:42;12.40;99.90
36374;DHT22;22399;51.346;12.372;2024-03-06T10:43:11;12.30;99.90
36374;DHT22;22399;51.346;12.372;2024-03-06T10:45:43;12.80;99.90
36374;DHT22;22399;51.346;12.372;2024-03-06T10:48:14;12.90;99.90
36374;DHT22;22399;51.346;12.372;2024-03-06T10:50:44;13.10;99.90
36374;DHT22;22399;51.346;12.372;2024-03-06T10:53:14;12.80;99.90
36374;DHT22;22399;51.346;12.372;2024-03-06T10:55:50;12.30;99.90
36374;DHT22;22399;51.346;12.372;2024-03-06T10:58:20;12.40;99.90
36374;DHT22;22399;51.346;12.372;2024-03-06T11:00:48;12.60;99.90
36374;DHT22;22399;51.346;12.372;2024-03-06T11:03:19;12.30;99.90
36374;DHT22;22399;51.346;12.372;2024-03-06T11:05:47;11.80;99.90
36374;DHT22;22399;51.346;12.372;2024-03-06T11:08:19;11.60;99.90
36374;DHT22;22399;51.346;12.372;2024-03-06T11:10:50;11.30;99.90
36374;DHT22;22399;51.346;12.372;2024-03-06T11:13:23;11.20;99.90
36374;DHT22;22399;51.346;12.372;2024-03-06T11:15:53;11.20;99.90
36374;DHT22;22399;51.346;12.372;2024-03-06T11:18:46;11.20;99.90
36374;DHT22;22399;51.346;12.372;2024-03-06T11:21:31;11.30;99.90
36374;DHT22;22399;51.346;12.372;2024-03-06T11:24:23;11.20;99.90
36374;DHT22;22399;51.346;12.372;2024-03-06T11:27:00;11.30;99.90
36374;DHT22;22399;51.346;12.372;2024-03-06T11:29:29;11.20;99.90
36374;DHT22;22399;51.346;12.372;2024-03-06T11:32:18;11.50;99.90
36374;DHT22;22399;51.346;12.372;2024-03-06T11:34:46;11.70;99.90
36374;DHT22;22399;51.346;12.372;2024-03-06T11:37:20;12.10;99.90
36374;DHT22;22399;51.346;12.372;2024-03-06T11:39:50;12.20;99.90
36374;DHT22;22399;51.346;12.372;2024-03-06T11:42:32;12.70;99.90
36374;DHT22;22399;51.346;12.372;2024-03-06T11:45:13;12.50;99.90
36374;DHT22;22399;51.346;12.372;2024-03-06T11:47:57;12.50;99.90
36374;DHT22;22399;51.346;12.372;2024-03-06T11:50:26;13.00;99.90
36374;DHT22;22399;51.346;12.372;2024-03-06T11:52:57;13.40;99.90
36374;DHT22;22399;51.346;12.372;2024-03-06T11:55:25;13.00;99.90
36374;DHT22;22399;51.346;12.372;2024-03-06T11:57:55;12.70;99.90
36374;DHT22;22399;51.346;12.372;2024-03-06T12:00:24;12.60;99.90
36374;DHT22;22399;51.346;12.372;2024-03-06T12:02:52;12.50;99.90
36374;DHT22;22399;51.346;12.372;2024-03-06T12:05:22;12.70;99.90
36374;DHT22;22399;51.346;12.372;2024-03-06T12:07:52;12.50;99.90
36374;DHT22;22399;51.346;12.372;2024-03-06T12:10:21;12.50;99.90
36374;DHT22;22399;51.346;12.372;2024-03-06T12:12:49;12.50;99.90
36374;DHT22;22399;51.346;12.372;2024-03-06T12:15:19;12.80;99.90
36374;DHT22;22399;51.346;12.372;2024-03-06T12:17:48;13.00;99.90
36374;DHT22;22399;51.346;12.372;2024-03-06T12:20:18;12.50;99.90
36374;DHT22;22399;51.346;12.372;2024-03-06T12:22:49;12.30;99.90
36374;DHT22;22399;51.346;12.372;2024-03-06T12:25:18;12.20;99.90
36374;DHT22;22399;51.346;12.372;2024-03-06T12:27:48;12.20;99.90
36374;DHT22;22399;51.346;12.372;2024-03-06T12:30:18;12.50;99.90
36374;DHT22;22399;51.346;12.372;2024-03-06T12:32:56;12.40;99.90
36374;DHT22;22399;51.346;12.372;2024-03-06T12:35:26;12.70;99.90
36374;DHT22;22399;51.346;12.372;2024-03-06T12:37:54;12.80;99.90
36374;DHT22;22399;51.346;12.372;2024-03-06T12:40:23;12.80;99.90
36374;DHT22;22399;51.346;12.372;2024-03-06T12:42:51;13.40;99.90
36374;DHT22;22399;51.346;12.372;2024-03-06T12:45:21;13.80;99.90
36374;DHT22;22399;51.346;12.372;2024-03-06T12:47:50;14.10;99.90
36374;DHT22;22399;51.346;12.372;2024-03-06T12:50:18;14.20;99.90
36374;DHT22;22399;51.346;12.372;2024-03-06T12:52:47;14.30;99.90
36374;DHT22;22399;51.346;12.372;2024-03-06T12:55:15;14.40;99.90
36374;DHT22;22399;51.346;12.372;2024-03-06T12:57:44;14.80;99.90
36374;DHT22;22399;51.346;12.372;2024-03-06T13:00:14;14.90;99.90
36374;DHT22;22399;51.346;12.372;2024-03-06T13:02:45;14.90;99.90
36374;DHT22;22399;51.346;12.372;2024-03-06T13:05:14;15.50;99.90
36374;DHT22;22399;51.346;12.372;2024-03-06T13:07:43;15.30;99.90
36374;DHT22;22399;51.346;12.372;2024-03-06T13:10:11;14.70;99.90
36374;DHT22;22399;51.346;12.372;2024-03-06T13:12:40;13.90;99.90
36374;DHT22;22399;51.346;12.372;2024-03-06T13:15:09;13.20;99.90
36374;DHT22;22399;51.346;12.372;2024-03-06T13:17:37;12.90;99.90
36374;DHT22;22399;51.346;12.372;2024-03-06T13:20:09;12.70;99.90
36374;DHT22;22399;51.346;12.372;2024-03-06T13:22:39;13.00;99.90
36374;DHT22;22399;51.346;12.372;2024-03-06T13:25:08;12.60;99.90
36374;DHT22;22399;51.346;12.372;2024-03-06T13:27:36;12.80;99.90
36374;DHT22;22399;51.346;12.372;2024-03-06T13:30:06;12.80;99.90
36374;DHT22;22399;51.346;12.372;2024-03-06T13:32:35;12.80;99.90
36374;DHT22;22399;51.346;12.372;2024-03-06T13:35:04;12.90;99.90
36374;DHT22;22399;51.346;12.372;2024-03-06T13:37:34;12.80;99.90
36374;DHT22;22399;51.346;12.372;2024-03-06T13:40:04;13.20;99.90
36374;DHT22;22399;51.346;12.372;2024-03-06T13:42:34;13.00;99.90
36374;DHT22;22399;51.346;12.372;2024-03-06T13:45:03;12.20;99.90
36374;DHT22;22399;51.346;12.372;2024-03-06T13:47:32;12.10;99.90
36374;DHT22;22399;51.346;12.372;2024-03-06T13:50:00;12.30;99.90
36374;DHT22;22399;51.346;12.372;2024-03-06T13:52:28;12.60;99.90
36374;DHT22;22399;51.346;12.372;2024-03-06T13:54:58;12.80;99.90
36374;DHT22;22399;51.346;12.372;2024-03-06T13:57:27;13.00;99.90
36374;DHT22;22399;51.346;12.372;2024-03-06T13:59:56;13.60;99.90
36374;DHT22;22399;51.346;12.372;2024-03-06T14:02:24;14.00;99.90
36374;DHT22;22399;51.346;12.372;2024-03-06T14:04:53;13.80;99.90
36374;DHT22;22399;51.346;12.372;2024-03-06T14:07:21;13.60;99.90
36374;DHT22;22399;51.346;12.372;2024-03-06T14:09:50;13.40;99.90
36374;DHT22;22399;51.346;12.372;2024-03-06T14:12:20;13.40;99.90
36374;DHT22;22399;51.346;12.372;2024-03-06T14:14:48;13.20;99.90
36374;DHT22;22399;51.346;12.372;2024-03-06T14:17:17;13.20;99.90
36374;DHT22;22399;51.346;12.372;2024-03-06T14:19:45;13.60;99.90
36374;DHT22;22399;51.346;12.372;2024-03-06T14:22:13;13.90;99.90
36374;DHT22;22399;51.346;12.372;2024-03-06T14:24:44;14.10;99.90
36374;DHT22;22399;51.346;12.372;2024-03-06T14:27:12;13.60;99.90
36374;DHT22;22399;51.346;12.372;2024-03-06T14:29:45;13.20;99.90
36374;DHT22;22399;51.346;12.372;2024-03-06T14:32:14;13.60;99.90
36374;DHT22;22399;51.346;12.372;2024-03-06T14:34:43;13.60;99.90
36374;DHT22;22399;51.346;12.372;2024-03-06T14:37:11;13.50;99.90
36374;DHT22;22399;51.346;12.372;2024-03-06T14:39:40;13.60;99.90
36374;DHT22;22399;51.346;12.372;2024-03-06T14:42:08;13.60;99.90
36374;DHT22;22399;51.346;12.372;2024-03-06T14:44:36;13.80;99.90
36374;DHT22;22399;51.346;12.372;2024-03-06T14:47:06;13.70;99.90
36374;DHT22;22399;51.346;12.372;2024-03-06T14:49:35;13.30;99.90
36374;DHT22;22399;51.346;12.372;2024-03-06T14:52:03;12.90;99.50
36374;DHT22;22399;51.346;12.372;2024-03-06T14:54:32;12.60;99.70
36374;DHT22;22399;51.346;12.372;2024-03-06T14:57:00;12.40;99.70
36374;DHT22;22399;51.346;12.372;2024-03-06T14:59:29;12.10;99.60
36374;DHT22;22399;51.346;12.372;2024-03-06T15:01:57;11.40;99.90
36374;DHT22;22399;51.346;12.372;2024-03-06T15:04:27;10.90;99.90
36374;DHT22;22399;51.346;12.372;2024-03-06T15:06:56;10.70;99.90
36374;DHT22;22399;51.346;12.372;2024-03-06T15:09:24;10.50;99.90
36374;DHT22;22399;51.346;12.372;2024-03-06T15:11:53;10.40;99.90
36374;DHT22;22399;51.346;12.372;2024-03-06T15:14:22;10.20;99.90
36374;DHT22;22399;51.346;12.372;2024-03-06T15:16:52;10.10;99.90
36374;DHT22;22399;51.346;12.372;2024-03-06T15:19:21;9.90;99.90
36374;DHT22;22399;51.346;12.372;2024-03-06T15:21:51;9.90;99.90
36374;DHT22;22399;51.346;12.372;2024-03-06T15:24:19;9.90;99.90
36374;DHT22;22399;51.346;12.372;2024-03-06T15:26:48;9.90;99.90
36374;DHT22;22399;51.346;12.372;2024-03-06T15:29:17;9.90;99.90
36374;DHT22;22399;51.346;12.372;2024-03-06T15:31:45;10.00;99.90
36374;DHT22;22399;51.346;12.372;2024-03-06T15:34:14;10.00;99.90
36374;DHT22;22399;51.346;12.372;2024-03-06T15:36:42;10.00;99.90
36374;DHT22;22399;51.346;12.372;2024-03-06T15:39:12;9.90;99.90
36374;DHT22;22399;51.346;12.372;2024-03-06T15:41:41;9.80;99.90
36374;DHT22;22399;51.346;12.372;2024-03-06T15:44:10;9.80;99.90
36374;DHT22;22399;51.346;12.372;2024-03-06T15:46:39;9.60;99.90